createdAt,value
2019-06-20T00:00:18.371Z,0
2019-06-20T00:00:58.758Z,0
2019-06-20T00:01:39.227Z,0
2019-06-20T00:02:19.713Z,0
2019-06-20T00:10:25.430Z,0
2019-06-20T00:11:05.899Z,0
2019-06-20T00:11:46.393Z,0
2019-06-20T00:12:26.861Z,0
2019-06-20T00:13:07.351Z,0
2019-06-20T00:13:47.837Z,0
2019-06-20T00:14:28.334Z,0
2019-06-20T00:15:08.823Z,0
2019-06-20T00:15:49.330Z,0
2019-06-20T00:16:29.823Z,0
2019-06-20T00:23:55.122Z,0
2019-06-20T00:24:35.716Z,0
2019-06-20T00:25:16.182Z,0
2019-06-20T00:25:56.675Z,0
2019-06-20T00:26:37.163Z,0
2019-06-20T00:27:17.682Z,0
2019-06-20T00:27:58.132Z,0
2019-06-20T00:28:38.634Z,0
2019-06-20T00:29:19.114Z,0
2019-06-20T00:29:59.594Z,0
2019-06-20T00:38:05.367Z,0
2019-06-20T00:38:45.853Z,0
2019-06-20T00:39:26.335Z,0
2019-06-20T00:40:06.819Z,0
2019-06-20T00:40:47.323Z,0
2019-06-20T00:41:27.802Z,0
2019-06-20T00:42:08.296Z,0
2019-06-20T00:42:48.754Z,0
2019-06-20T00:43:29.255Z,0
2019-06-20T00:44:09.786Z,0
2019-06-20T00:52:15.447Z,0
2019-06-20T00:52:55.985Z,0
2019-06-20T00:53:36.339Z,0
2019-06-20T00:54:16.829Z,0
2019-06-20T00:54:57.339Z,0
2019-06-20T00:55:37.752Z,0
2019-06-20T00:56:21.400Z,0
2019-06-20T00:57:47.419Z,0
2019-06-20T00:59:09.002Z,0
2019-06-20T00:59:49.536Z,0
2019-06-20T01:00:30.103Z,0
2019-06-20T01:04:35.446Z,0
2019-06-20T01:05:16.587Z,0
2019-06-20T01:05:57.802Z,0
2019-06-20T01:06:42.312Z,0
2019-06-20T01:08:07.636Z,0
2019-06-20T01:08:48.104Z,0
2019-06-20T01:10:16.052Z,0
2019-06-20T01:10:56.884Z,0
2019-06-20T01:11:37.241Z,0
2019-06-20T01:12:19.436Z,0
2019-06-20T01:12:59.851Z,0
2019-06-20T01:14:28.197Z,0
2019-06-20T01:15:08.867Z,0
2019-06-20T01:15:49.276Z,0
2019-06-20T01:16:29.791Z,0
2019-06-20T01:19:15.222Z,0
2019-06-20T01:19:58.187Z,0
2019-06-20T01:20:36.231Z,0
2019-06-20T01:21:16.662Z,0
2019-06-20T01:21:57.410Z,0
2019-06-20T01:22:37.712Z,0
2019-06-20T01:23:18.190Z,0
2019-06-20T01:23:58.717Z,0
2019-06-20T01:24:39.361Z,0
2019-06-20T01:25:19.948Z,0
2019-06-20T01:29:25.916Z,0
2019-06-20T01:30:08.037Z,0
2019-06-20T01:30:48.562Z,0
2019-06-20T01:31:28.938Z,0
2019-06-20T01:32:09.562Z,0
2019-06-20T01:32:50.035Z,0
2019-06-20T01:36:55.083Z,0
2019-06-20T01:37:38.815Z,0
2019-06-20T01:38:19.242Z,0
2019-06-20T01:39:45.288Z,0
2019-06-20T01:40:25.840Z,0
2019-06-20T01:41:07.962Z,0
2019-06-20T01:45:16.098Z,0
2019-06-20T02:00:01.038Z,0
2019-06-20T02:00:43.214Z,0
2019-06-20T02:01:28.252Z,0
2019-06-20T02:02:08.863Z,0
2019-06-20T02:06:13.200Z,0
2019-06-20T02:06:53.662Z,0
2019-06-20T02:11:44.640Z,0
2019-06-20T02:12:25.057Z,0
2019-06-20T02:13:05.589Z,0
2019-06-20T02:16:32.535Z,0
2019-06-20T02:17:13.110Z,0
2019-06-20T02:17:53.891Z,0
2019-06-20T02:18:34.381Z,0
2019-06-20T02:19:14.823Z,0
2019-06-20T02:19:55.470Z,0
2019-06-20T02:20:35.948Z,0
2019-06-20T02:23:22.650Z,0
2019-06-20T02:24:02.925Z,0
2019-06-20T02:24:43.866Z,0
2019-06-20T02:25:24.309Z,0
2019-06-20T02:26:45.764Z,0
2019-06-20T02:27:26.258Z,0
2019-06-20T02:28:53.187Z,0
2019-06-20T02:29:33.682Z,0
2019-06-20T02:30:14.142Z,0
2019-06-20T02:30:54.673Z,0
2019-06-20T02:31:35.118Z,0
2019-06-20T02:35:01.456Z,0
2019-06-20T02:35:43.346Z,0
2019-06-20T02:36:23.845Z,0
2019-06-20T02:37:04.273Z,0
2019-06-20T02:37:44.799Z,0
2019-06-20T02:38:25.417Z,0
2019-06-20T02:39:05.712Z,0
2019-06-20T02:41:18.877Z,0
2019-06-20T02:41:59.339Z,0
2019-06-20T02:42:41.915Z,0
2019-06-20T02:44:43.884Z,0
2019-06-20T02:45:24.328Z,0
2019-06-20T02:46:04.894Z,0
2019-06-20T02:46:45.304Z,0
2019-06-20T02:47:25.987Z,0
2019-06-20T02:48:06.291Z,0
2019-06-20T02:48:46.692Z,0
2019-06-20T02:49:27.385Z,0
2019-06-20T02:50:07.867Z,0
2019-06-20T02:56:13.646Z,0
2019-06-20T02:56:54.066Z,0
2019-06-20T02:57:34.531Z,0
2019-06-20T02:58:15.037Z,0
2019-06-20T02:59:35.937Z,0
2019-06-20T03:00:16.359Z,0
2019-06-20T03:00:56.861Z,0
2019-06-20T03:01:37.393Z,0
2019-06-20T03:02:17.836Z,0
2019-06-20T03:09:05.588Z,0
2019-06-20T03:12:33.938Z,0
2019-06-20T03:13:14.392Z,0
2019-06-20T03:14:44.814Z,0
2019-06-20T03:15:15.793Z,0
2019-06-20T03:15:56.260Z,0
2019-06-20T03:22:03.408Z,0
2019-06-20T03:22:43.926Z,0
2019-06-20T03:23:24.329Z,0
2019-06-20T03:24:04.813Z,0
2019-06-20T03:24:45.286Z,0
2019-06-20T03:25:26.349Z,0
2019-06-20T03:26:07.045Z,0
2019-06-20T03:26:47.380Z,0
2019-06-20T03:27:27.846Z,0
2019-06-20T03:35:33.537Z,0
2019-06-20T03:36:14.049Z,0
2019-06-20T03:36:54.568Z,0
2019-06-20T03:37:34.957Z,0
2019-06-20T03:38:15.431Z,0
2019-06-20T03:38:55.873Z,0
2019-06-20T03:39:36.392Z,0
2019-06-20T03:40:16.856Z,0
2019-06-20T03:40:57.611Z,0
2019-06-20T03:41:38.083Z,0
2019-06-20T03:49:03.385Z,0
2019-06-20T03:49:43.871Z,0
2019-06-20T03:50:24.355Z,0
2019-06-20T03:51:04.828Z,0
2019-06-20T03:51:45.361Z,0
2019-06-20T03:52:25.836Z,0
2019-06-20T03:53:06.324Z,0
2019-06-20T03:53:46.799Z,0
2019-06-20T03:54:27.270Z,0
2019-06-20T03:55:07.763Z,0
2019-06-20T03:55:48.236Z,0
2019-06-20T04:01:53.352Z,0
2019-06-20T04:02:33.832Z,0
2019-06-20T04:03:14.308Z,0
2019-06-20T04:03:54.780Z,0
2019-06-20T04:04:35.272Z,0
2019-06-20T04:05:15.756Z,0
2019-06-20T04:05:56.243Z,0
2019-06-20T04:06:36.710Z,0
2019-06-20T04:07:17.152Z,0
2019-06-20T04:07:57.627Z,0
2019-06-20T04:08:38.142Z,0
2019-06-20T04:15:23.571Z,0
2019-06-20T04:16:04.061Z,0
2019-06-20T04:16:44.586Z,0
2019-06-20T04:17:25.062Z,0
2019-06-20T04:18:05.584Z,0
2019-06-20T04:18:46.252Z,0
2019-06-20T04:19:26.510Z,0
2019-06-20T04:20:06.973Z,0
2019-06-20T04:20:47.424Z,0
2019-06-20T05:15:52.845Z,10
2019-06-20T05:16:29.348Z,10
2019-06-20T05:17:09.845Z,10
2019-06-20T05:17:51.301Z,15
2019-06-20T05:18:36.425Z,15
2019-06-20T05:20:35.903Z,15
2019-06-20T05:21:16.420Z,10
2019-06-20T05:21:56.978Z,10
2019-06-20T05:22:37.348Z,10
2019-06-20T05:23:17.822Z,10
2019-06-20T05:23:58.472Z,10
2019-06-20T05:25:24.958Z,10
2019-06-20T05:26:05.468Z,10
2019-06-20T05:26:45.896Z,10
2019-06-20T05:27:26.368Z,15
2019-06-20T05:28:06.840Z,15
2019-06-20T05:28:47.328Z,10
2019-06-20T05:29:30.873Z,10
2019-06-20T05:34:53.702Z,15
2019-06-20T05:35:34.176Z,15
2019-06-20T05:36:14.632Z,15
2019-06-20T05:36:55.098Z,20
2019-06-20T05:37:35.590Z,25
2019-06-20T05:38:16.059Z,25
2019-06-20T05:38:56.515Z,30
2019-06-20T05:39:37.044Z,35
2019-06-20T05:40:17.503Z,40
2019-06-20T05:40:57.972Z,40
2019-06-20T05:41:38.471Z,35
2019-06-20T05:49:03.746Z,25
2019-06-20T05:49:44.211Z,20
2019-06-20T05:50:24.671Z,20
2019-06-20T05:51:05.119Z,20
2019-06-20T05:51:45.601Z,20
2019-06-20T05:52:26.096Z,20
2019-06-20T05:53:06.546Z,15
2019-06-20T05:53:46.989Z,15
2019-06-20T05:54:27.475Z,20
2019-06-20T05:55:07.923Z,20
2019-06-20T05:55:48.379Z,20
2019-06-20T05:59:16.765Z,15
2019-06-20T05:59:57.244Z,15
2019-06-20T06:00:37.705Z,15
2019-06-20T06:01:18.170Z,15
2019-06-20T06:08:44.891Z,10
2019-06-20T06:09:27.184Z,15
2019-06-20T06:10:07.164Z,15
2019-06-20T06:10:48.459Z,15
2019-06-20T06:12:54.919Z,15
2019-06-20T06:13:36.640Z,15
2019-06-20T06:14:16.781Z,15
2019-06-20T06:15:00.676Z,15
2019-06-20T06:15:37.714Z,15
2019-06-20T06:16:25.994Z,15
2019-06-20T06:25:49.690Z,20
2019-06-20T06:26:30.170Z,20
2019-06-20T06:27:10.697Z,20
2019-06-20T06:27:51.165Z,20
2019-06-20T06:31:58.976Z,25
2019-06-20T06:32:40.554Z,25
2019-06-20T06:33:19.788Z,25
2019-06-20T06:34:00.269Z,25
2019-06-20T06:41:25.485Z,65
2019-06-20T06:42:05.948Z,90
2019-06-20T06:42:46.437Z,95
2019-06-20T06:43:27.109Z,140
2019-06-20T06:44:08.408Z,410
2019-06-20T06:44:48.085Z,515
2019-06-20T06:45:28.555Z,515
2019-06-20T06:46:09.054Z,585
2019-06-20T06:46:54.341Z,645
2019-06-20T06:47:29.979Z,590
2019-06-20T06:53:30.615Z,265
2019-06-20T06:54:11.094Z,255
2019-06-20T06:54:52.260Z,290
2019-06-20T07:00:56.415Z,160
2019-06-20T07:01:36.964Z,145
2019-06-20T07:02:17.396Z,160
2019-06-20T07:02:57.904Z,145
2019-06-20T07:03:38.364Z,155
2019-06-20T07:04:18.860Z,150
2019-06-20T07:04:59.366Z,205
2019-06-20T07:05:39.798Z,220
2019-06-20T07:06:20.329Z,305
2019-06-20T07:07:00.795Z,455
2019-06-20T07:14:28.327Z,280
2019-06-20T07:15:10.610Z,360
2019-06-20T07:15:51.133Z,330
2019-06-20T07:20:36.225Z,125
2019-06-20T07:21:16.674Z,195
2019-06-20T07:21:58.588Z,240
2019-06-20T07:22:40.757Z,150
2019-06-20T07:25:26.838Z,110
2019-06-20T07:26:08.582Z,145
2019-06-20T07:26:48.985Z,135
2019-06-20T07:30:57.069Z,70
2019-06-20T07:31:39.527Z,70
2019-06-20T07:32:20.167Z,70
2019-06-20T07:33:00.602Z,75
2019-06-20T07:37:06.721Z,85
2019-06-20T07:37:46.528Z,85
2019-06-20T07:38:27.026Z,85
2019-06-20T07:39:07.699Z,85
2019-06-20T07:39:48.105Z,90
2019-06-20T07:40:28.857Z,100
2019-06-20T07:46:14.724Z,125
2019-06-20T07:46:59.009Z,125
2019-06-20T07:47:42.069Z,125
2019-06-20T07:48:22.312Z,125
2019-06-20T07:49:02.857Z,120
2019-06-20T07:51:52.001Z,140
2019-06-20T07:52:33.131Z,145
2019-06-20T07:56:00.023Z,140
2019-06-20T07:56:40.423Z,145
2019-06-20T07:57:20.869Z,140
2019-06-20T07:58:01.352Z,140
2019-06-20T07:59:29.338Z,140
2019-06-20T08:00:09.784Z,135
2019-06-20T08:00:50.362Z,110
2019-06-20T08:01:30.830Z,100
2019-06-20T08:02:11.318Z,90
2019-06-20T08:02:51.908Z,90
2019-06-20T08:03:32.267Z,90
2019-06-20T08:04:12.725Z,90
2019-06-20T08:06:25.968Z,85
2019-06-20T08:07:08.134Z,80
2019-06-20T08:07:49.095Z,80
2019-06-20T08:08:30.353Z,75
2019-06-20T08:10:39.240Z,70
2019-06-20T08:11:19.754Z,65
2019-06-20T08:12:00.228Z,65
2019-06-20T08:12:40.644Z,65
2019-06-20T08:13:22.200Z,65
2019-06-20T08:15:28.047Z,75
2019-06-20T08:16:08.505Z,95
2019-06-20T08:21:37.874Z,110
2019-06-20T08:22:17.942Z,95
2019-06-20T08:22:58.397Z,95
2019-06-20T08:23:40.553Z,95
2019-06-20T08:24:21.057Z,95
2019-06-20T08:25:01.458Z,95
2019-06-20T08:25:41.946Z,90
2019-06-20T08:26:22.427Z,90
2019-06-20T08:32:29.767Z,85
2019-06-20T08:33:12.202Z,85
2019-06-20T08:33:51.553Z,85
2019-06-20T08:34:32.073Z,85
2019-06-20T08:35:12.491Z,85
2019-06-20T08:37:18.659Z,85
2019-06-20T08:37:59.669Z,85
2019-06-20T08:38:39.745Z,85
2019-06-20T08:39:20.154Z,85
2019-06-20T08:40:01.986Z,80
2019-06-20T08:40:41.137Z,75
2019-06-20T08:41:21.662Z,80
2019-06-20T08:42:02.179Z,80
2019-06-20T08:42:42.611Z,80
2019-06-20T08:46:10.335Z,75
2019-06-20T08:46:49.371Z,75
2019-06-20T08:47:29.832Z,75
2019-06-20T08:48:10.323Z,70
2019-06-20T08:48:50.751Z,70
2019-06-20T08:49:31.260Z,65
2019-06-20T08:50:11.742Z,70
2019-06-20T08:50:52.270Z,90
2019-06-20T08:51:32.871Z,110
2019-06-20T08:56:27.775Z,70
2019-06-20T08:57:08.240Z,65
2019-06-20T08:57:48.715Z,70
2019-06-20T09:03:12.886Z,70
2019-06-20T09:03:53.954Z,65
2019-06-20T09:05:14.333Z,70
2019-06-20T09:05:56.355Z,70
2019-06-20T09:06:35.507Z,70
2019-06-20T09:07:15.952Z,70
2019-06-20T09:08:46.886Z,75
2019-06-20T09:09:27.326Z,75
2019-06-20T09:14:53.632Z,80
2019-06-20T09:15:33.807Z,80
2019-06-20T09:16:23.910Z,80
2019-06-20T09:16:55.002Z,85
2019-06-20T09:17:35.510Z,85
2019-06-20T09:18:15.984Z,90
2019-06-20T09:18:56.746Z,90
2019-06-20T09:25:02.962Z,100
2019-06-20T09:25:43.754Z,100
2019-06-20T09:26:28.776Z,105
2019-06-20T09:31:53.990Z,110
2019-06-20T09:32:34.112Z,100
2019-06-20T09:34:42.912Z,80
2019-06-20T09:35:23.391Z,70
2019-06-20T09:36:04.067Z,65
2019-06-20T09:36:45.524Z,65
2019-06-20T09:40:12.806Z,70
2019-06-20T09:40:53.154Z,65
2019-06-20T09:41:33.506Z,65
2019-06-20T09:42:14.014Z,60
2019-06-20T09:42:54.636Z,65
2019-06-20T09:43:35.466Z,65
2019-06-20T09:44:16.802Z,70
2019-06-20T09:47:42.578Z,90
2019-06-20T09:48:22.949Z,90
2019-06-20T09:49:03.415Z,95
2019-06-20T09:49:43.920Z,95
2019-06-20T09:50:24.549Z,95
2019-06-20T09:51:05.042Z,95
2019-06-20T09:51:45.530Z,95
2019-06-20T09:52:26.019Z,95
2019-06-20T09:53:06.643Z,95
2019-06-20T09:53:48.354Z,95
2019-06-20T10:00:00.219Z,85
2019-06-20T10:00:33.227Z,85
2019-06-20T10:01:13.867Z,80
2019-06-20T10:10:59.925Z,75
2019-06-20T10:11:40.480Z,75
2019-06-20T10:12:21.474Z,75
2019-06-20T10:14:23.303Z,70
2019-06-20T10:15:04.706Z,70
2019-06-20T10:15:46.623Z,70
2019-06-20T10:16:26.075Z,70
2019-06-20T10:17:06.562Z,70
2019-06-20T10:17:47.390Z,75
2019-06-20T10:18:27.794Z,75
2019-06-20T10:25:14.075Z,85
2019-06-20T10:25:54.565Z,85
2019-06-20T10:26:37.604Z,85
2019-06-20T10:28:51.399Z,80
2019-06-20T10:29:30.473Z,80
2019-06-20T11:08:33.065Z,90
2019-06-20T11:09:13.573Z,90
2019-06-20T11:09:54.015Z,80
2019-06-20T11:15:19.276Z,65
2019-06-20T11:15:59.741Z,60
2019-06-20T11:16:41.761Z,65
2019-06-20T11:17:20.738Z,85
2019-06-20T11:18:01.352Z,80
2019-06-20T11:18:41.931Z,85
2019-06-20T11:19:22.488Z,80
2019-06-20T11:26:13.692Z,85
2019-06-20T11:30:19.510Z,85
2019-06-20T11:31:01.153Z,85
2019-06-20T11:31:45.025Z,75
2019-06-20T11:34:27.884Z,80
2019-06-20T11:35:09.600Z,70
2019-06-20T11:35:50.353Z,70
2019-06-20T11:36:30.830Z,70
2019-06-20T11:37:11.335Z,65
2019-06-20T11:38:32.335Z,60
2019-06-20T11:43:17.947Z,65
2019-06-20T11:43:58.464Z,65
2019-06-20T11:44:39.152Z,65
2019-06-20T11:45:19.622Z,65
2019-06-20T11:46:00.560Z,65
2019-06-20T11:46:40.963Z,65
2019-06-20T11:47:21.442Z,65
2019-06-20T11:54:07.814Z,65
2019-06-20T11:54:48.313Z,60
2019-06-20T11:55:29.078Z,60
2019-06-20T11:56:11.377Z,60
2019-06-20T12:02:18.621Z,50
2019-06-20T12:03:02.143Z,50
2019-06-20T12:03:42.573Z,50
2019-06-20T12:05:07.883Z,55
2019-06-20T12:05:49.695Z,55
2019-06-20T12:06:28.865Z,55
2019-06-20T12:07:10.843Z,55
2019-06-20T12:07:53.093Z,55
2019-06-20T12:08:46.786Z,55
2019-06-20T12:09:27.321Z,55
2019-06-20T12:10:07.913Z,55
2019-06-20T12:10:49.441Z,60
2019-06-20T12:11:29.875Z,55
2019-06-20T12:12:11.929Z,55
2019-06-20T12:15:38.017Z,40
2019-06-20T12:16:18.253Z,40
2019-06-20T12:16:58.709Z,45
2019-06-20T12:17:43.119Z,45
2019-06-20T12:24:38.134Z,25
2019-06-20T12:25:18.161Z,25
2019-06-20T12:25:58.665Z,20
2019-06-20T12:28:44.702Z,15
2019-06-20T12:29:24.595Z,15
2019-06-20T12:30:05.179Z,15
2019-06-20T12:30:45.671Z,10
2019-06-20T12:31:26.165Z,10
2019-06-20T12:32:09.826Z,10
2019-06-20T12:37:33.139Z,10
2019-06-20T12:38:15.350Z,10
2019-06-20T12:42:22.442Z,5
2019-06-20T12:43:04.830Z,5
2019-06-20T12:43:46.305Z,5
2019-06-20T12:44:26.057Z,5
2019-06-20T12:46:34.549Z,5
2019-06-20T12:47:16.115Z,5
2019-06-20T12:47:56.977Z,5
2019-06-20T12:52:45.355Z,5
2019-06-20T12:53:25.672Z,10
2019-06-20T12:54:06.163Z,10
2019-06-20T12:54:49.278Z,10
2019-06-20T12:55:35.541Z,10
2019-06-20T12:58:04.943Z,15
2019-06-20T12:58:46.663Z,15
2019-06-20T12:59:28.105Z,15
2019-06-20T13:02:09.867Z,15
2019-06-20T13:02:50.490Z,15
2019-06-20T13:03:31.200Z,15
2019-06-20T13:04:11.775Z,20
2019-06-20T13:04:52.277Z,20
2019-06-20T13:05:32.787Z,20
2019-06-20T13:06:13.306Z,20
2019-06-20T13:06:53.772Z,20
2019-06-20T13:07:34.279Z,20
2019-06-20T13:08:14.723Z,20
2019-06-20T13:11:40.719Z,20
2019-06-20T13:12:20.822Z,20
2019-06-20T13:13:01.238Z,20
2019-06-20T13:13:42.180Z,20
2019-06-20T13:14:22.462Z,25
2019-06-20T13:15:04.808Z,25
2019-06-20T13:17:55.962Z,30
2019-06-20T13:19:20.437Z,35
2019-06-20T13:20:00.971Z,35
2019-06-20T13:20:42.283Z,40
2019-06-20T13:21:22.296Z,40
2019-06-20T13:22:02.769Z,40
2019-06-20T13:22:44.765Z,40
2019-06-20T13:23:24.576Z,40
2019-06-20T13:27:30.932Z,45
2019-06-20T13:28:14.337Z,45
2019-06-20T13:31:04.422Z,40
2019-06-20T13:33:44.763Z,35
2019-06-20T13:34:24.966Z,35
2019-06-20T13:35:06.186Z,35
2019-06-20T13:37:07.486Z,30
2019-06-20T13:37:49.712Z,30
2019-06-20T13:38:28.436Z,25
2019-06-20T13:39:08.890Z,25
2019-06-20T13:39:50.143Z,25
2019-06-20T13:40:29.971Z,25
2019-06-20T13:41:10.516Z,25
2019-06-20T13:41:50.950Z,20
2019-06-20T13:42:31.445Z,20
2019-06-20T13:43:11.901Z,20
2019-06-20T13:48:38.890Z,20
2019-06-20T13:49:18.630Z,20
2019-06-20T13:49:59.236Z,20
2019-06-20T13:50:40.372Z,20
2019-06-20T13:57:27.554Z,25
2019-06-20T13:58:08.107Z,25
2019-06-20T13:58:48.907Z,25
2019-06-20T13:59:29.428Z,20
2019-06-20T14:00:09.943Z,20
2019-06-20T14:00:50.934Z,20
2019-06-20T14:10:11.809Z,40
2019-06-20T14:11:02.572Z,45
2019-06-20T14:11:37.936Z,45
2019-06-20T14:12:18.476Z,45
2019-06-20T14:12:58.890Z,50
2019-06-20T14:14:30.139Z,50
2019-06-20T14:19:15.599Z,45
2019-06-20T14:19:56.532Z,45
2019-06-20T14:20:36.627Z,45
2019-06-20T14:21:17.122Z,50
2019-06-20T14:21:57.643Z,50
2019-06-20T14:22:38.061Z,50
2019-06-20T14:23:19.562Z,45
2019-06-20T14:24:00.421Z,45
2019-06-20T14:28:07.010Z,45
2019-06-20T14:28:48.241Z,45
2019-06-20T14:29:28.228Z,45
2019-06-20T14:30:08.755Z,45
2019-06-20T14:30:50.355Z,45
2019-06-20T14:31:29.838Z,40
2019-06-20T14:32:21.712Z,45
2019-06-20T14:38:15.789Z,40
2019-06-20T14:38:59.090Z,40
2019-06-20T14:39:39.598Z,40
2019-06-20T14:40:20.050Z,40
2019-06-20T14:45:05.350Z,40
2019-06-20T14:45:46.825Z,40
2019-06-20T14:46:26.878Z,40
2019-06-20T14:47:07.407Z,40
2019-06-20T14:47:47.848Z,40
2019-06-20T14:48:28.324Z,40
2019-06-20T14:49:08.761Z,40
2019-06-20T14:49:49.706Z,40
2019-06-20T14:50:30.159Z,40
2019-06-20T14:53:58.612Z,40
2019-06-20T14:54:39.084Z,40
2019-06-20T14:55:19.657Z,40
2019-06-20T14:56:01.362Z,40
2019-06-20T14:58:46.690Z,40
2019-06-20T14:59:26.005Z,40
2019-06-20T15:00:06.511Z,40
2019-06-20T15:00:48.090Z,40
2019-06-20T15:01:27.479Z,40
2019-06-20T15:03:35.925Z,50
2019-06-20T15:04:16.433Z,45
2019-06-20T15:04:57.825Z,45
2019-06-20T15:05:40.032Z,50
2019-06-20T15:09:06.763Z,55
2019-06-20T15:09:48.008Z,60
2019-06-20T15:10:27.464Z,70
2019-06-20T15:11:07.924Z,60
2019-06-20T15:11:51.176Z,60
2019-06-20T15:13:55.505Z,60
2019-06-20T15:14:35.857Z,65
2019-06-20T15:15:17.219Z,65
2019-06-20T15:15:59.383Z,60
2019-06-20T15:16:39.889Z,65
2019-06-20T15:21:25.559Z,45
2019-06-20T15:22:08.065Z,45
2019-06-20T15:22:49.333Z,45
2019-06-20T15:23:29.187Z,50
2019-06-20T15:24:09.896Z,50
2019-06-20T15:27:36.607Z,45
2019-06-20T15:28:17.126Z,45
2019-06-20T15:28:57.786Z,45
2019-06-20T15:29:38.244Z,45
2019-06-20T15:30:18.887Z,50
2019-06-20T15:31:00.795Z,50
2019-06-20T15:33:46.155Z,55
2019-06-20T15:34:26.381Z,50
2019-06-20T15:35:06.921Z,50
2019-06-20T15:35:52.723Z,45
2019-06-20T15:36:29.873Z,45
2019-06-20T15:41:19.275Z,45
2019-06-20T15:41:59.841Z,45
2019-06-20T15:42:40.389Z,45
2019-06-20T15:45:34.209Z,40
2019-06-20T15:46:14.967Z,45
2019-06-20T15:46:55.479Z,40
2019-06-20T15:51:00.114Z,40
2019-06-20T15:51:42.998Z,40
2019-06-20T15:52:22.892Z,40
2019-06-20T15:55:08.689Z,35
2019-06-20T15:55:49.307Z,35
2019-06-20T15:56:29.880Z,35
2019-06-20T15:57:12.150Z,35
2019-06-20T15:57:54.371Z,35
2019-06-20T16:00:39.778Z,35
2019-06-20T16:01:20.318Z,35
2019-06-20T16:02:00.932Z,35
2019-06-20T16:02:41.515Z,35
2019-06-20T16:03:22.388Z,40
2019-06-20T16:04:02.937Z,35
2019-06-20T16:04:43.471Z,35
2019-06-20T16:09:28.732Z,40
2019-06-20T16:10:12.234Z,40
2019-06-20T16:13:40.495Z,40
2019-06-20T16:14:24.000Z,40
2019-06-20T16:15:03.379Z,40
2019-06-20T16:18:46.613Z,40
2019-06-20T16:19:30.091Z,40
2019-06-20T16:20:10.425Z,35
2019-06-20T16:20:50.937Z,35
2019-06-20T16:21:31.734Z,40
2019-06-20T16:22:12.260Z,35
2019-06-20T16:22:52.800Z,40
2019-06-20T16:23:33.689Z,40
2019-06-20T16:24:14.202Z,35
2019-06-20T16:26:20.964Z,40
2019-06-20T16:27:01.305Z,35
2019-06-20T16:27:41.906Z,35
2019-06-20T16:28:22.552Z,35
2019-06-20T16:29:03.625Z,35
2019-06-20T16:29:44.104Z,35
2019-06-20T17:11:47.058Z,20
2019-06-20T17:12:27.515Z,20
2019-06-20T17:13:08.010Z,20
2019-06-20T17:13:48.535Z,20
2019-06-20T17:18:31.945Z,20
2019-06-20T17:19:12.397Z,20
2019-06-20T17:19:52.889Z,20
2019-06-20T17:20:33.299Z,20
2019-06-20T17:21:13.788Z,20
2019-06-20T17:21:54.244Z,20
2019-06-20T17:22:34.681Z,20
2019-06-20T17:23:15.175Z,20
2019-06-20T17:23:55.689Z,20
2019-06-20T17:24:36.126Z,20
2019-06-20T17:25:16.802Z,15
2019-06-20T17:28:02.441Z,15
2019-06-20T17:28:43.551Z,15
2019-06-20T17:29:22.686Z,15
2019-06-20T17:30:03.158Z,15
2019-06-20T17:30:43.710Z,15
2019-06-20T17:31:24.468Z,15
2019-06-20T17:32:05.953Z,15
2019-06-20T17:38:11.971Z,15
2019-06-20T17:38:54.974Z,15
2019-06-20T17:39:35.573Z,15
2019-06-20T17:40:16.222Z,15
2019-06-20T17:40:56.761Z,15
2019-06-20T17:43:42.588Z,15
2019-06-20T17:44:23.314Z,15
2019-06-20T17:45:03.952Z,15
2019-06-20T17:46:33.318Z,15
2019-06-20T17:47:13.765Z,15
2019-06-20T17:47:54.880Z,15
2019-06-20T17:48:35.488Z,15
2019-06-20T17:49:16.006Z,15
2019-06-20T17:49:56.651Z,15
2019-06-20T17:52:06.068Z,15
2019-06-20T17:54:12.279Z,15
2019-06-20T17:54:54.928Z,15
2019-06-20T17:55:34.944Z,15
2019-06-20T17:59:05.682Z,15
2019-06-20T17:59:46.318Z,10
2019-06-20T18:04:10.064Z,10
2019-06-20T18:06:04.050Z,10
2019-06-20T18:06:44.539Z,10
2019-06-20T18:07:25.129Z,10
2019-06-20T18:08:14.389Z,10
2019-06-20T18:08:46.093Z,10
2019-06-20T18:13:32.041Z,10
2019-06-20T18:14:14.935Z,10
2019-06-20T18:14:55.346Z,10
2019-06-20T18:19:02.224Z,10
2019-06-20T18:19:44.681Z,10
2019-06-20T18:26:30.569Z,10
2019-06-20T18:27:11.048Z,10
2019-06-20T18:27:52.002Z,10
2019-06-20T18:28:36.097Z,10
2019-06-20T18:29:16.674Z,10
2019-06-20T18:29:57.172Z,10
2019-06-20T18:30:40.316Z,10
2019-06-20T18:35:00.728Z,10
2019-06-20T18:35:27.389Z,10
2019-06-20T18:36:07.862Z,10
2019-06-20T18:36:49.357Z,5
2019-06-20T18:37:31.625Z,5
2019-06-20T18:38:56.308Z,5
2019-06-20T18:39:36.780Z,5
2019-06-20T18:40:17.282Z,5
2019-06-20T18:40:57.725Z,5
2019-06-20T18:41:38.644Z,5
2019-06-20T18:42:19.083Z,5
2019-06-20T18:42:59.560Z,5
2019-06-20T18:48:26.044Z,10
2019-06-20T18:49:06.748Z,10
2019-06-20T18:49:47.170Z,10
2019-06-20T18:50:27.644Z,10
2019-06-20T18:51:08.157Z,10
2019-06-20T18:52:29.082Z,10
2019-06-20T18:53:09.549Z,10
2019-06-20T18:53:50.714Z,10
2019-06-20T18:54:31.609Z,10
2019-06-20T18:57:56.023Z,10
2019-06-20T18:58:36.511Z,10
2019-06-20T18:59:17.029Z,10
2019-06-20T18:59:57.484Z,5
2019-06-20T19:02:35.730Z,5
2019-06-20T19:03:16.147Z,5
2019-06-20T19:03:57.259Z,5
2019-06-20T19:08:40.729Z,5
2019-06-20T19:09:21.217Z,5
2019-06-20T19:10:02.160Z,5
2019-06-20T19:10:42.678Z,5
2019-06-20T19:11:23.177Z,5
2019-06-20T19:12:03.696Z,5
2019-06-20T19:12:45.982Z,5
2019-06-20T19:16:10.934Z,0
2019-06-20T19:16:51.462Z,0
2019-06-20T19:17:31.978Z,0
2019-06-20T19:18:13.493Z,0
2019-06-20T19:18:54.046Z,0
2019-06-20T19:23:00.633Z,0
2019-06-20T19:23:41.100Z,0
2019-06-20T19:24:21.613Z,0
2019-06-20T19:25:03.991Z,0
2019-06-20T19:25:43.196Z,0
2019-06-20T19:26:23.472Z,0
2019-06-20T19:27:04.631Z,0
2019-06-20T19:27:46.836Z,0
2019-06-20T19:31:50.633Z,0
2019-06-20T19:32:32.826Z,0
2019-06-20T19:33:13.424Z,0
2019-06-20T19:33:54.235Z,0
2019-06-20T19:34:34.729Z,0
2019-06-20T19:35:15.224Z,0
2019-06-20T19:41:21.924Z,0
2019-06-20T19:42:02.965Z,0
2019-06-20T19:42:43.411Z,0
2019-06-20T19:50:22.928Z,0
2019-06-20T19:51:03.595Z,0
2019-06-20T19:51:44.396Z,0
2019-06-20T19:55:48.557Z,0
2019-06-20T19:56:28.974Z,0
2019-06-20T19:57:09.455Z,0
2019-06-20T19:57:49.933Z,0
2019-06-20T19:58:30.422Z,0
2019-06-20T19:59:10.945Z,0
2019-06-20T19:59:51.409Z,0
2019-06-20T20:00:32.023Z,0
2019-06-20T20:01:12.328Z,0
2019-06-20T20:02:33.402Z,0
2019-06-20T20:09:18.448Z,0
2019-06-20T20:09:58.971Z,0
2019-06-20T20:10:39.487Z,0
2019-06-20T20:11:19.903Z,0
2019-06-20T20:12:00.403Z,0
2019-06-20T20:12:40.880Z,0
2019-06-20T20:13:21.335Z,0
2019-06-20T20:14:01.840Z,0
2019-06-20T20:14:42.262Z,0
2019-06-20T20:15:22.779Z,0
2019-06-20T20:16:03.209Z,0
2019-06-20T20:23:28.679Z,0
2019-06-20T20:24:09.104Z,0
2019-06-20T20:24:49.647Z,0
2019-06-20T20:25:30.162Z,0
2019-06-20T20:26:10.576Z,0
2019-06-20T20:26:51.097Z,0
2019-06-20T20:27:31.566Z,0
2019-06-20T20:28:12.034Z,0
2019-06-20T20:28:52.704Z,0
2019-06-20T20:29:33.162Z,0
2019-06-20T20:35:38.440Z,0
2019-06-20T20:36:24.707Z,0
2019-06-20T20:36:59.548Z,0
2019-06-20T20:37:39.988Z,0
2019-06-20T20:38:20.426Z,0
2019-06-20T20:39:00.929Z,0
2019-06-20T20:39:41.367Z,0
2019-06-20T20:40:21.846Z,0
2019-06-20T20:41:02.340Z,0
2019-06-20T20:41:42.730Z,0
2019-06-20T20:42:23.213Z,0
2019-06-20T20:49:48.374Z,0
2019-06-20T20:50:28.844Z,0
2019-06-20T20:51:09.318Z,0
2019-06-20T20:51:49.788Z,0
2019-06-20T20:52:30.240Z,0
2019-06-20T20:53:10.724Z,0
2019-06-20T20:56:51.325Z,0
2019-06-20T20:57:32.887Z,0
2019-06-20T20:58:13.562Z,0
2019-06-20T20:58:53.936Z,0
2019-06-20T21:02:16.302Z,0
2019-06-20T21:03:00.373Z,0
2019-06-20T21:03:40.809Z,0
2019-06-20T21:10:26.410Z,0
2019-06-20T21:11:07.999Z,0
2019-06-20T21:11:48.469Z,0
2019-06-20T21:12:28.945Z,0
2019-06-20T21:13:10.150Z,0
2019-06-20T21:13:50.611Z,0
2019-06-20T21:16:39.172Z,0
2019-06-20T21:17:19.599Z,0
2019-06-20T21:18:00.090Z,0
2019-06-20T21:18:40.579Z,0
2019-06-20T21:22:46.437Z,0
2019-06-20T21:23:27.116Z,0
2019-06-20T21:24:08.414Z,0
2019-06-20T21:24:48.884Z,0
2019-06-20T21:25:32.119Z,0
2019-06-20T21:26:09.847Z,0
2019-06-20T21:26:50.397Z,0
2019-06-20T21:27:30.818Z,0
2019-06-20T21:34:56.103Z,0
2019-06-20T21:35:36.575Z,0
2019-06-20T21:36:17.062Z,0
2019-06-20T21:36:57.569Z,0
2019-06-20T21:37:38.038Z,0
2019-06-20T21:38:18.507Z,0
2019-06-20T21:38:58.981Z,0
2019-06-20T21:39:39.449Z,0
2019-06-20T21:40:19.918Z,0
2019-06-20T21:41:00.399Z,0
2019-06-20T21:41:40.853Z,0
2019-06-20T21:49:06.036Z,0